Time;durP1;ratioP1;P1;durP2;ratioP2;P2;SDS_P1;SDS_P2;PMS_P1;PMS_P2;Temp;Humidity;BMP_temperature;BMP_pressure;BME280_temperature;BME280_humidity;BME280_pressure;Samples;Min_cycle;Max_cycle;Signal;HPM_P1;HPM_P2
2022/08/19 00:02:04;;;;;;;4.68;1.23;;;;;;;15.81;53.28;101377.88;4980002;28;20041;-76
2022/08/19 00:04:34;;;;;;;2.13;1.10;;;;;;;15.80;53.01;101389.38;4985571;28;20468;-74
2022/08/19 00:07:00;;;;;;;2.22;0.93;;;;;;;15.63;52.86;101385.00;4980990;28;20038;-74
2022/08/19 00:09:27;;;;;;;1.88;1.30;;;;;;;15.67;53.23;101386.53;4985741;28;20645;-75
2022/08/19 00:11:55;;;;;;;4.47;1.73;;;;;;;15.60;53.37;101374.66;4979213;28;20124;-75
2022/08/19 00:14:22;;;;;;;4.03;1.77;;;;;;;15.61;53.62;101370.22;4970615;28;20408;-76
2022/08/19 00:16:48;;;;;;;2.17;0.98;;;;;;;15.57;53.71;101366.88;4978950;28;20089;-77
2022/08/19 00:19:15;;;;;;;2.33;1.40;;;;;;;15.55;54.05;101361.72;4981255;28;20053;-77
2022/08/19 00:21:40;;;;;;;1.88;1.27;;;;;;;15.56;53.80;101366.03;4980270;28;20038;-76
2022/08/19 00:24:11;;;;;;;1.63;1.08;;;;;;;15.53;53.99;101360.94;4980801;28;20042;-75
2022/08/19 00:26:38;;;;;;;2.72;1.75;;;;;;;15.52;53.87;101361.84;4984172;28;20057;-76
2022/08/19 00:29:06;;;;;;;2.38;1.55;;;;;;;15.49;53.78;101359.41;4983162;28;20038;-76
2022/08/19 00:31:31;;;;;;;2.45;1.55;;;;;;;15.45;53.80;101357.84;4968587;28;20039;-78
2022/08/19 00:33:57;;;;;;;3.88;1.52;;;;;;;15.48;54.31;101362.97;4994681;28;20069;-76
2022/08/19 00:36:23;;;;;;;2.45;1.73;;;;;;;15.54;53.73;101351.25;4996886;28;20374;-75
2022/08/19 00:38:51;;;;;;;5.15;1.50;;;;;;;15.67;53.23;101346.19;4981343;28;20125;-76
2022/08/19 00:41:20;;;;;;;1.70;1.33;;;;;;;15.66;53.37;101349.72;4982853;28;20024;-77
2022/08/19 00:44:08;;;;;;;4.07;1.27;;;;;;;15.63;53.42;101340.22;4972268;28;20042;-76
2022/08/19 00:46:37;;;;;;;2.00;1.17;;;;;;;15.64;53.64;101341.94;4961779;28;20034;-76
2022/08/19 00:49:09;;;;;;;1.52;1.35;;;;;;;15.66;53.47;101339.19;4979758;28;20043;-75
2022/08/19 00:51:35;;;;;;;;;;;;;;;15.62;53.20;101335.00;4970340;28;20037;-78
2022/08/19 00:54:02;;;;;;;2.28;1.20;;;;;;;15.47;53.86;101331.44;4981809;28;19925;-76
2022/08/19 00:56:30;;;;;;;2.13;1.10;;;;;;;15.56;53.51;101339.69;4983635;28;20084;-76
2022/08/19 00:58:58;;;;;;;1.70;1.52;;;;;;;15.56;53.67;101338.84;4981959;28;20663;-74
2022/08/19 01:01:23;;;;;;;2.45;1.52;;;;;;;15.53;53.47;101336.38;4967965;28;20041;-78
2022/08/19 01:03:50;;;;;;;3.50;1.52;;;;;;;15.46;53.79;101338.50;4977242;28;20062;-79
2022/08/19 01:06:16;;;;;;;3.38;1.67;;;;;;;15.40;53.97;101333.56;4977982;28;20203;-78
2022/08/19 01:08:41;;;;;;;3.25;2.80;;;;;;;15.32;54.06;101327.81;4981353;28;20038;-78
2022/08/19 01:11:08;;;;;;;1.98;1.38;;;;;;;15.21;54.14;101328.34;4982815;28;20061;-77
2022/08/19 01:13:36;;;;;;;4.90;1.92;;;;;;;15.07;54.15;101329.09;4982978;28;20069;-77
2022/08/19 01:16:06;;;;;;;4.38;2.30;;;;;;;15.02;54.49;101332.91;4996151;28;20082;-77
2022/08/19 01:18:35;;;;;;;3.08;1.40;;;;;;;15.00;54.56;101335.59;4955426;28;20511;-78
2022/08/19 01:21:07;;;;;;;7.93;1.85;;;;;;;14.95;54.58;101327.09;4960326;28;21451;-76
2022/08/19 01:23:45;;;;;;;2.30;1.85;;;;;;;14.84;54.78;101319.75;4961994;28;20599;-77
2022/08/19 01:26:17;;;;;;;3.83;2.65;;;;;;;14.57;54.80;101322.00;4989286;28;20066;-77
2022/08/19 01:28:45;;;;;;;3.22;1.83;;;;;;;14.49;55.11;101318.88;4985031;28;20057;-77
2022/08/19 01:31:15;;;;;;;2.08;1.58;;;;;;;14.34;55.34;101316.06;4987775;28;20046;-77
2022/08/19 01:33:41;;;;;;;2.33;2.10;;;;;;;14.28;55.31;101316.34;4974098;28;20540;-75
2022/08/19 01:36:22;;;;;;;2.30;1.90;;;;;;;14.22;55.27;101314.00;4986463;28;20030;-79
2022/08/19 01:38:48;;;;;;;3.73;2.40;;;;;;;14.21;55.57;101324.59;4970898;28;20116;-76
2022/08/19 01:41:14;;;;;;;3.42;1.75;;;;;;;14.11;55.28;101316.31;4980844;28;20036;-77
2022/08/19 01:43:40;;;;;;;2.17;1.73;;;;;;;14.01;55.69;101322.91;4965363;28;20039;-75
2022/08/19 01:46:06;;;;;;;3.58;1.80;;;;;;;13.97;55.83;101322.22;4960025;28;20042;-78
2022/08/19 01:48:39;;;;;;;5.78;3.08;;;;;;;13.81;56.07;101327.34;4948786;28;20118;-78
2022/08/19 01:51:06;;;;;;;2.65;2.30;;;;;;;13.67;56.47;101324.50;4961042;28;20062;-79
2022/08/19 01:53:32;;;;;;;3.60;1.90;;;;;;;13.63;56.61;101322.94;4971282;28;20043;-78
2022/08/19 01:55:57;;;;;;;3.53;2.25;;;;;;;13.67;56.33;101317.50;4965096;28;20043;-76
2022/08/19 01:58:30;;;;;;;2.40;1.67;;;;;;;13.67;56.14;101321.88;4975641;28;20067;-77
2022/08/19 02:00:57;;;;;;;4.00;2.10;;;;;;;13.64;56.09;101324.66;4978065;28;20030;-76
2022/08/19 02:03:22;;;;;;;2.88;2.58;;;;;;;13.66;56.14;101328.06;4981058;28;20039;-79
2022/08/19 02:05:54;;;;;;;2.40;1.85;;;;;;;13.60;56.01;101334.44;4964485;28;20386;-75
2022/08/19 02:08:20;;;;;;;4.43;2.65;;;;;;;13.56;56.56;101332.81;4958006;28;20157;-77
2022/08/19 02:10:46;;;;;;;3.15;2.55;;;;;;;13.60;56.02;101329.19;4958814;28;20421;-77
2022/08/19 02:13:13;;;;;;;4.82;2.90;;;;;;;13.60;56.15;101331.81;4955165;28;20623;-78
2022/08/19 02:15:39;;;;;;;3.45;2.50;;;;;;;13.38;56.32;101334.50;4983999;28;20174;-76
2022/08/19 02:18:06;;;;;;;6.60;4.45;;;;;;;13.26;56.54;101335.91;4954428;28;20054;-77
2022/08/19 02:20:31;;;;;;;3.63;3.30;;;;;;;13.17;56.94;101327.59;4965358;28;20030;-75
2022/08/19 02:22:57;;;;;;;5.15;2.92;;;;;;;13.19;56.94;101328.38;4970028;28;20537;-76
2022/08/19 02:25:22;;;;;;;4.38;3.17;;;;;;;13.23;56.61;101328.19;4960667;28;20042;-76
2022/08/19 02:27:48;;;;;;;3.40;3.05;;;;;;;13.20;56.99;101335.31;4968867;28;20666;-77
2022/08/19 02:30:15;;;;;;;5.80;4.20;;;;;;;13.25;56.80;101333.34;4967793;28;20792;-77
2022/08/19 02:32:41;;;;;;;7.00;3.90;;;;;;;13.20;56.83;101325.69;4980947;28;20042;-75
2022/08/19 02:35:08;;;;;;;4.80;4.30;;;;;;;13.06;56.80;101323.66;4980107;28;20104;-75
2022/08/19 02:40:18;;;;;;;6.32;4.35;;;;;;;12.82;57.29;101337.81;4977935;28;20121;-77
2022/08/19 02:42:45;;;;;;;9.52;3.95;;;;;;;12.83;57.43;101331.69;4965079;28;20133;-77
2022/08/19 02:45:13;;;;;;;3.67;3.33;;;;;;;12.79;57.08;101330.09;4980708;28;20061;-75
2022/08/19 02:47:38;;;;;;;3.88;3.15;;;;;;;12.74;57.18;101327.66;4973574;28;20054;-77
2022/08/19 02:50:04;;;;;;;3.25;2.67;;;;;;;12.66;57.39;101324.47;4979032;28;20453;-78
2022/08/19 02:52:32;;;;;;;10.85;3.70;;;;;;;12.68;57.28;101326.13;4977036;28;20238;-75
2022/08/19 02:54:57;;;;;;;4.88;3.17;;;;;;;12.69;57.29;101325.25;4967135;28;20101;-75
2022/08/19 02:57:24;;;;;;;5.75;3.60;;;;;;;12.69;57.44;101320.00;4982892;28;20046;-77
2022/08/19 02:59:49;;;;;;;6.43;4.05;;;;;;;12.73;57.07;101318.09;4963898;28;20145;-76
2022/08/19 03:02:15;;;;;;;5.75;3.42;;;;;;;12.74;56.97;101313.72;4980008;28;20050;-77
2022/08/19 03:04:41;;;;;;;5.63;3.42;;;;;;;12.71;57.01;101317.28;4966923;28;20122;-76
2022/08/19 03:07:08;;;;;;;4.00;3.10;;;;;;;12.68;57.14;101318.25;4967286;28;20042;-78
2022/08/19 03:09:37;;;;;;;6.05;4.82;;;;;;;12.53;57.00;101312.78;4953190;28;20046;-75
2022/08/19 03:12:06;;;;;;;5.15;4.05;;;;;;;12.41;57.39;101322.88;4951540;28;20039;-76
2022/08/19 03:14:33;;;;;;;5.70;3.92;;;;;;;12.47;57.66;101324.41;4946065;28;20023;-77
2022/08/19 03:16:59;;;;;;;5.00;3.65;;;;;;;12.50;57.48;101324.25;4942874;28;20035;-78
2022/08/19 03:19:26;;;;;;;7.28;3.67;;;;;;;12.53;57.13;101313.63;4960788;28;20382;-78
2022/08/19 03:21:51;;;;;;;6.88;4.80;;;;;;;12.49;57.16;101312.03;4943774;28;20038;-78
2022/08/19 03:24:18;;;;;;;5.32;3.78;;;;;;;12.45;57.47;101323.59;4981038;28;20248;-75
2022/08/19 03:26:50;;;;;;;3.67;3.20;;;;;;;12.39;57.17;101323.84;4958289;28;20046;-78
2022/08/19 03:29:16;;;;;;;4.72;3.65;;;;;;;12.36;57.45;101310.88;4941350;28;20173;-78
2022/08/19 03:31:43;;;;;;;4.50;3.35;;;;;;;12.39;57.39;101315.97;4960646;28;20035;-76
2022/08/19 03:34:11;;;;;;;5.15;3.30;;;;;;;12.41;56.99;101314.16;4966079;28;20059;-77
2022/08/19 03:36:38;;;;;;;4.85;4.07;;;;;;;12.31;57.11;101307.56;4963162;28;20046;-77
2022/08/19 03:39:03;;;;;;;5.13;3.72;;;;;;;12.17;57.08;101306.34;4988072;28;20092;-76
2022/08/19 03:41:38;;;;;;;4.60;3.60;;;;;;;12.21;57.31;101307.09;4984501;28;20801;-78
2022/08/19 03:44:04;;;;;;;3.92;3.10;;;;;;;12.22;57.18;101304.41;4982690;28;20061;-76
2022/08/19 03:46:32;;;;;;;6.15;3.30;;;;;;;12.19;57.25;101303.69;4982604;28;20107;-79
2022/08/19 03:49:00;;;;;;;5.10;3.45;;;;;;;12.20;57.10;101305.38;4982459;28;20051;-77
2022/08/19 03:51:31;;;;;;;5.00;3.17;;;;;;;12.14;57.34;101316.13;4967699;28;20510;-76
2022/08/19 03:53:59;;;;;;;3.67;3.05;;;;;;;12.10;57.25;101320.63;4959319;28;20038;-75
2022/08/19 03:56:25;;;;;;;8.25;4.45;;;;;;;12.10;57.33;101325.84;4966562;28;20414;-78
2022/08/19 03:58:52;;;;;;;4.68;3.55;;;;;;;11.99;57.33;101328.03;4985036;28;20045;-77
2022/08/19 04:01:20;;;;;;;7.10;3.63;;;;;;;11.96;57.47;101329.00;4968632;28;20036;-77
2022/08/19 04:03:47;;;;;;;4.88;3.58;;;;;;;11.97;57.55;101324.63;4978903;28;20053;-76
2022/08/19 04:06:21;;;;;;;3.47;3.10;;;;;;;11.95;57.71;101332.53;4980497;28;20034;-78
2022/08/19 04:08:48;;;;;;;5.13;3.13;;;;;;;12.01;57.43;101332.31;4979708;28;20053;-77
2022/08/19 04:11:17;;;;;;;5.13;4.05;;;;;;;12.07;57.58;101328.59;4996890;28;20045;-77
2022/08/19 04:13:44;;;;;;;4.28;3.47;;;;;;;12.06;57.15;101324.25;4965859;28;20047;-76
2022/08/19 04:16:10;;;;;;;3.67;2.60;;;;;;;11.97;57.22;101328.09;4958433;28;21374;-78
2022/08/19 04:18:38;;;;;;;3.55;3.17;;;;;;;11.90;57.29;101317.91;4966280;28;20120;-76
2022/08/19 04:21:05;;;;;;;9.38;4.15;;;;;;;11.81;57.88;101316.50;4952372;28;20481;-75
2022/08/19 04:23:32;;;;;;;8.35;4.82;;;;;;;11.87;57.97;101318.91;4963621;28;20668;-77
2022/08/19 04:25:58;;;;;;;6.95;3.70;;;;;;;11.92;57.92;101316.94;4962881;28;20066;-77
2022/08/19 04:28:24;;;;;;;4.47;3.72;;;;;;;11.96;57.80;101317.69;4978506;28;20049;-77
2022/08/19 04:30:52;;;;;;;8.68;4.20;;;;;;;11.81;58.07;101309.50;4980116;28;20258;-76
2022/08/19 04:33:22;;;;;;;4.95;3.78;;;;;;;11.93;57.98;101318.63;4982449;28;20049;-76
2022/08/19 04:35:49;;;;;;;9.27;5.30;;;;;;;11.93;57.74;101313.41;4961913;28;20037;-77
2022/08/19 04:38:16;;;;;;;4.55;4.03;;;;;;;11.93;57.90;101309.94;4974712;28;20046;-76
2022/08/19 04:43:30;;;;;;;6.82;5.13;;;;;;;11.91;57.80;101298.66;4995156;28;20050;-77
2022/08/19 04:45:57;;;;;;;10.80;5.35;;;;;;;11.89;57.68;101296.13;4983567;28;20049;-77
2022/08/19 04:48:25;;;;;;;6.88;4.93;;;;;;;11.81;58.10;101303.41;4960292;28;20779;-78
2022/08/19 04:50:58;;;;;;;7.78;4.72;;;;;;;12.00;57.89;101293.06;4966396;28;20065;-77
2022/08/19 04:53:31;;;;;;;7.13;4.68;;;;;;;12.03;58.01;101304.28;4980659;28;20632;-78
2022/08/19 04:55:58;;;;;;;6.40;4.35;;;;;;;12.11;57.87;101298.75;4973806;28;20035;-78
2022/08/19 04:58:28;;;;;;;6.90;5.32;;;;;;;12.13;58.05;101299.50;4965341;28;20093;-75
2022/08/19 05:00:54;;;;;;;7.13;4.45;;;;;;;12.22;57.83;101308.78;4982315;28;20043;-77
2022/08/19 05:03:19;;;;;;;7.60;5.32;;;;;;;12.25;57.66;101304.28;4968780;28;20057;-76
2022/08/19 05:05:48;;;;;;;6.15;4.05;;;;;;;12.39;57.67;101306.34;4996176;28;20046;-79
2022/08/19 05:08:19;;;;;;;8.60;5.25;;;;;;;12.47;57.31;101308.66;4982539;28;20113;-77
2022/08/19 05:10:46;;;;;;;7.65;4.55;;;;;;;12.53;57.39;101311.00;4966705;28;20035;-77
2022/08/19 05:13:13;;;;;;;6.05;4.60;;;;;;;12.58;57.21;101301.19;4981087;28;20041;-78
2022/08/19 05:15:38;;;;;;;6.88;4.85;;;;;;;12.59;57.08;101305.53;4980881;28;20125;-77
2022/08/19 05:23:32;;;;;;;6.55;4.43;;;;;;;12.72;56.72;101318.16;4983264;28;20042;-77
2022/08/19 05:25:58;;;;;;;7.40;5.68;;;;;;;12.68;56.74;101315.63;4982554;28;20101;-77
2022/08/19 05:28:23;;;;;;;8.70;5.85;;;;;;;12.87;56.82;101315.75;4977380;28;20043;-77
2022/08/19 05:30:50;;;;;;;6.35;4.50;;;;;;;13.06;56.27;101307.91;4983729;28;20038;-76
2022/08/19 05:33:17;;;;;;;7.28;4.15;;;;;;;13.40;56.17;101311.66;4979893;28;20061;-77
2022/08/19 05:35:44;;;;;;;9.13;5.55;;;;;;;13.77;55.15;101315.28;4981264;28;20060;-77
2022/08/19 05:38:10;;;;;;;8.02;5.25;;;;;;;14.26;54.38;101315.56;4997711;28;20054;-76
2022/08/19 05:40:38;;;;;;;7.30;4.72;;;;;;;14.99;52.29;101320.72;4972497;28;20058;-77
2022/08/19 05:43:06;;;;;;;6.28;5.10;;;;;;;15.90;51.33;101316.75;4964652;28;20093;-78
2022/08/19 05:45:32;;;;;;;5.22;4.03;;;;;;;16.48;48.66;101317.91;4980748;28;20117;-78
2022/08/19 05:47:58;;;;;;;5.13;4.63;;;;;;;17.56;47.72;101301.78;4970652;28;20138;-75
2022/08/19 05:50:26;;;;;;;5.55;4.30;;;;;;;18.75;44.35;101302.84;4966615;28;20412;-77
2022/08/19 05:52:52;;;;;;;4.82;3.38;;;;;;;20.38;40.20;101299.25;4977929;28;20050;-76
2022/08/19 05:55:19;;;;;;;5.78;3.40;;;;;;;21.52;35.32;101299.31;4966925;28;20034;-77
2022/08/19 05:57:45;;;;;;;7.55;3.10;;;;;;;22.44;34.98;101306.91;4971711;28;20072;-76
2022/08/19 06:00:12;;;;;;;4.90;2.72;;;;;;;23.02;32.71;101303.78;4983153;28;20034;-77
2022/08/19 06:02:38;;;;;;;4.82;3.33;;;;;;;23.26;33.33;101307.97;4981314;28;20039;-78
2022/08/19 06:05:08;;;;;;;4.35;3.58;;;;;;;22.66;33.58;101318.44;4966535;28;20050;-77
2022/08/19 06:07:36;;;;;;;5.68;3.60;;;;;;;22.34;33.26;101317.50;4980665;28;20100;-77
2022/08/19 06:10:04;;;;;;;4.80;2.85;;;;;;;21.91;33.87;101326.34;4981385;28;20034;-75
2022/08/19 06:12:34;;;;;;;7.32;3.50;;;;;;;20.76;35.11;101327.38;4980948;28;20137;-77
2022/08/19 06:15:05;;;;;;;3.92;3.50;;;;;;;21.58;35.29;101319.28;4998878;28;20030;-77
2022/08/19 06:17:30;;;;;;;5.90;4.05;;;;;;;21.82;34.27;101316.44;4988638;28;20129;-76
2022/08/19 06:19:56;;;;;;;24.02;14.80;;;;;;;22.06;33.88;101318.91;4979484;28;20133;-77
2022/08/19 06:22:22;;;;;;;11.73;8.18;;;;;;;23.17;33.13;101315.81;4980091;28;20041;-77
2022/08/19 06:24:52;;;;;;;5.88;3.78;;;;;;;23.19;32.62;101318.34;4980645;28;20082;-77
2022/08/19 06:27:18;;;;;;;2.97;2.65;;;;;;;24.01;30.09;101328.00;4964556;28;20057;-80
2022/08/19 06:29:44;;;;;;;5.07;3.33;;;;;;;24.31;29.45;101326.22;4979368;28;20092;-78
2022/08/19 06:32:10;;;;;;;4.47;4.07;;;;;;;24.57;28.65;101332.69;4983457;28;20046;-76
2022/08/19 06:34:36;;;;;;;3.97;3.15;;;;;;;25.23;28.45;101333.66;4970745;28;20531;-79
2022/08/19 06:37:02;;;;;;;7.85;6.07;;;;;;;25.20;28.36;101333.97;4980289;28;20062;-76
2022/08/19 06:39:32;;;;;;;6.57;4.05;;;;;;;24.61;29.71;101330.56;4980295;28;20048;-77
2022/08/19 06:42:00;;;;;;;4.47;3.67;;;;;;;25.12;29.86;101326.66;4991898;28;20034;-79
2022/08/19 06:44:34;;;;;;;6.80;3.30;;;;;;;25.63;28.68;101322.66;4960929;28;20030;-79
2022/08/19 06:47:03;;;;;;;4.90;4.38;;;;;;;25.19;29.27;101329.59;4984984;28;20114;-78
2022/08/19 06:49:30;;;;;;;5.20;4.60;;;;;;;26.37;27.81;101322.56;4964747;28;20026;-77
2022/08/19 06:51:58;;;;;;;5.22;4.55;;;;;;;26.99;27.06;101320.66;4975877;28;20041;-79
2022/08/19 06:54:25;;;;;;;4.22;3.83;;;;;;;28.54;25.80;101314.00;4983893;28;20033;-78
2022/08/19 06:56:51;;;;;;;4.85;3.33;;;;;;;30.17;22.42;101301.72;4978092;28;20046;-79
2022/08/19 06:59:20;;;;;;;5.63;4.53;;;;;;;30.89;21.96;101303.09;4964472;28;20034;-76
2022/08/19 07:01:51;;;;;;;4.75;3.97;;;;;;;31.32;21.66;101302.41;4990646;28;20124;-77
2022/08/19 07:04:19;;;;;;;;;;;;;;;31.72;20.63;101300.19;4964821;28;20498;-77
2022/08/19 07:06:45;;;;;;;4.18;3.05;;;;;;;32.04;21.00;101298.84;4982792;28;19920;-77
2022/08/19 07:09:17;;;;;;;3.47;3.17;;;;;;;31.64;21.35;101303.00;4984772;28;20042;-77
2022/08/19 07:11:49;;;;;;;2.17;1.98;;;;;;;31.88;21.02;101310.75;4974441;28;20037;-76
2022/08/19 07:14:18;;;;;;;6.95;2.95;;;;;;;32.37;20.15;101307.25;4982208;28;20034;-76
2022/08/19 07:16:45;;;;;;;4.30;2.85;;;;;;;32.43;20.26;101302.94;4966528;28;20080;-77
2022/08/19 07:19:11;;;;;;;2.00;1.60;;;;;;;32.92;19.56;101306.59;4982372;28;20050;-78
2022/08/19 07:21:37;;;;;;;4.38;1.85;;;;;;;33.25;18.95;101312.16;4981871;28;20129;-79
2022/08/19 07:24:03;;;;;;;2.88;2.30;;;;;;;33.59;19.25;101314.00;4962700;28;20127;-77
2022/08/19 07:26:38;;;;;;;3.05;1.45;;;;;;;34.21;18.67;101316.59;4950311;28;20045;-77
2022/08/19 07:29:04;;;;;;;4.55;2.28;;;;;;;34.17;19.05;101318.88;4961779;28;20058;-77
2022/08/19 07:31:30;;;;;;;2.85;2.33;;;;;;;31.78;20.63;101323.72;4963938;28;20031;-76
2022/08/19 07:33:56;;;;;;;3.03;1.63;;;;;;;32.73;20.58;101314.38;4977819;28;20046;-77
2022/08/19 07:36:31;;;;;;;2.50;1.55;;;;;;;33.17;20.19;101326.72;4982201;28;20042;-78
2022/08/19 07:38:59;;;;;;;4.57;2.00;;;;;;;34.04;18.32;101322.41;4977506;28;22367;-77
2022/08/19 07:41:28;;;;;;;1.90;1.20;;;;;;;34.16;18.85;101327.25;4968624;28;20044;-77
2022/08/19 07:43:54;;;;;;;2.65;1.33;;;;;;;32.93;19.51;101328.06;4962294;28;20047;-78
2022/08/19 07:46:20;;;;;;;3.38;1.48;;;;;;;30.36;23.30;101331.91;4982269;28;20030;-77
2022/08/19 07:48:49;;;;;;;1.90;1.13;;;;;;;28.13;26.11;101332.84;4982207;28;20448;-78
2022/08/19 07:51:18;;;;;;;4.90;1.45;;;;;;;28.22;26.18;101342.59;4998265;28;20409;-77
2022/08/19 07:53:45;;;;;;;1.75;0.90;;;;;;;29.60;24.13;101347.09;4979796;28;20046;-75
2022/08/19 07:56:12;;;;;;;6.93;1.83;;;;;;;27.64;26.19;101357.72;4967397;28;20321;-77
2022/08/19 07:58:41;;;;;;;1.75;0.73;;;;;;;27.19;26.83;101349.97;4996012;28;20039;-77
2022/08/19 08:01:09;;;;;;;5.82;1.58;;;;;;;26.54;28.47;101350.34;4998703;28;20035;-78
2022/08/19 08:09:11;;;;;;;3.00;1.40;;;;;;;27.15;27.57;101349.44;4979866;28;20093;-77
2022/08/19 08:12:11;;;;;;;2.03;1.77;;;;;;;28.98;24.80;101358.53;4981548;28;20034;-77
2022/08/19 08:14:41;;;;;;;4.72;1.98;;;;;;;30.77;22.15;101364.75;4942577;28;20046;-79
2022/08/19 08:17:08;;;;;;;3.33;1.48;;;;;;;31.28;21.09;101363.22;4941084;28;20031;-77
2022/08/19 08:19:35;;;;;;;1.85;1.55;;;;;;;30.02;23.61;101359.25;4981334;28;20034;-78
2022/08/19 08:22:02;;;;;;;2.60;1.27;;;;;;;29.07;24.74;101368.25;4992543;28;20142;-76
2022/08/19 08:24:33;;;;;;;4.10;1.63;;;;;;;28.49;25.30;101354.84;4960083;28;20034;-78
2022/08/19 08:27:00;;;;;;;3.53;2.28;;;;;;;28.08;26.76;101360.19;4967269;28;20073;-77
2022/08/19 08:29:29;;;;;;;3.20;1.98;;;;;;;29.78;25.35;101372.72;4998270;28;20031;-75
2022/08/19 08:31:55;;;;;;;5.60;2.88;;;;;;;30.09;23.61;101369.19;4978448;28;20061;-76
2022/08/19 08:34:21;;;;;;;6.22;3.05;;;;;;;30.89;22.25;101375.09;4968494;28;20038;-75
2022/08/19 08:36:47;;;;;;;5.03;2.75;;;;;;;30.20;23.32;101376.03;4982016;28;20499;-77
2022/08/19 08:39:15;;;;;;;3.28;2.28;;;;;;;30.28;24.13;101373.25;4986020;28;20042;-76
2022/08/19 08:42:19;;;;;;;4.07;2.22;;;;;;;30.77;23.00;101374.72;4991083;28;20084;-77
2022/08/19 08:44:58;;;;;;;4.50;3.00;;;;;;;30.59;23.41;101377.75;4960491;28;20105;-76
2022/08/19 08:47:26;;;;;;;5.95;3.05;;;;;;;30.29;23.52;101383.03;5002552;28;21044;-75
2022/08/19 08:50:01;;;;;;;8.02;3.58;;;;;;;29.28;25.11;101389.25;4967136;28;20037;-78
2022/08/19 08:52:42;;;;;;;5.38;4.32;;;;;;;29.44;24.59;101394.59;4997724;28;20042;-76
2022/08/19 08:55:16;;;;;;;6.80;3.65;;;;;;;29.06;25.81;101405.09;4996838;28;20031;-77
2022/08/19 08:57:54;;;;;;;4.18;3.63;;;;;;;29.03;25.38;101408.09;4975353;28;20485;-78
2022/08/19 09:00:27;;;;;;;5.90;4.22;;;;;;;28.02;27.14;101405.69;4988870;28;20035;-78
2022/08/19 09:02:54;;;;;;;6.78;3.17;;;;;;;28.25;27.88;101401.38;4972139;28;20042;-77
2022/08/19 09:05:22;;;;;;;8.55;4.90;;;;;;;28.18;26.76;101400.38;4976963;28;20045;-77
2022/08/19 09:08:23;;;;;;;10.05;6.25;;;;;;;28.36;27.05;101399.38;4962185;28;20054;-76
2022/08/19 09:10:55;;;;;;;4.65;4.07;;;;;;;28.72;27.12;101397.22;4973418;28;20034;-78
2022/08/19 09:13:31;;;;;;;7.18;5.25;;;;;;;27.65;28.16;101396.16;4982775;28;20057;-77
2022/08/19 09:16:12;;;;;;;5.20;4.70;;;;;;;26.38;30.38;101393.91;4997576;28;20693;-76
2022/08/19 09:18:46;;;;;;;4.50;3.75;;;;;;;26.67;30.01;101399.91;4957582;28;20622;-76
2022/08/19 09:21:14;;;;;;;4.35;3.42;;;;;;;27.20;29.51;101395.41;4978085;28;20065;-77
2022/08/19 09:23:40;;;;;;;7.50;4.47;;;;;;;27.62;29.04;101400.00;4989890;28;20042;-77
2022/08/19 09:26:16;;;;;;;9.13;4.30;;;;;;;26.86;30.22;101406.06;4974783;28;20117;-77
2022/08/19 09:28:44;;;;;;;7.45;4.97;;;;;;;27.05;29.33;101400.50;4972108;28;20062;-77
2022/08/19 09:31:15;;;;;;;5.47;4.05;;;;;;;27.17;28.84;101400.28;5003072;28;21359;-76
2022/08/19 09:33:43;;;;;;;7.30;4.40;;;;;;;27.20;30.12;101403.47;4972204;28;20036;-74
2022/08/19 09:36:12;;;;;;;7.10;5.15;;;;;;;26.16;30.45;101397.91;4996265;28;20034;-76
2022/08/19 09:38:40;;;;;;;7.88;5.05;;;;;;;25.18;32.09;101408.16;4966020;28;20045;-75
2022/08/19 09:41:18;;;;;;;9.35;5.95;;;;;;;24.20;33.93;101401.97;4966445;28;20022;-76
2022/08/19 09:43:46;;;;;;;4.22;3.58;;;;;;;24.13;34.38;101393.66;4974504;28;20075;-76
2022/08/19 09:46:12;;;;;;;7.47;5.10;;;;;;;23.54;35.09;101391.78;4977815;28;20041;-77
2022/08/19 09:48:39;;;;;;;4.63;4.15;;;;;;;23.41;34.64;101387.53;4973023;28;20042;-77
2022/08/19 09:51:15;;;;;;;8.25;4.63;;;;;;;23.52;35.79;101388.41;4969305;28;20049;-77
2022/08/19 09:53:42;;;;;;;9.98;4.65;;;;;;;23.56;35.15;101387.16;4949401;28;20277;-78
2022/08/19 09:56:08;;;;;;;4.80;3.63;;;;;;;24.15;34.66;101388.19;4953212;28;20043;-78
2022/08/19 09:58:35;;;;;;;5.13;3.70;;;;;;;25.12;33.17;101390.00;4955680;28;20082;-77
2022/08/19 10:01:02;;;;;;;4.78;4.32;;;;;;;26.24;30.99;101385.41;4954960;28;20237;-77
2022/08/19 10:03:29;;;;;;;6.13;3.55;;;;;;;26.67;30.23;101386.50;4957739;28;20054;-77
2022/08/19 10:05:56;;;;;;;5.25;3.60;;;;;;;26.73;30.66;101386.84;4941286;28;20046;-80
2022/08/19 10:08:26;;;;;;;4.22;2.60;;;;;;;26.33;29.87;101390.84;4960745;28;20137;-77
2022/08/19 10:10:54;;;;;;;3.85;2.70;;;;;;;26.64;30.16;101389.47;4962343;28;20096;-78
2022/08/19 10:13:23;;;;;;;6.45;3.47;;;;;;;25.86;30.99;101383.78;4958058;28;20053;-76
2022/08/19 10:15:52;;;;;;;3.67;3.35;;;;;;;25.23;32.10;101385.31;4969170;28;20568;-78
2022/08/19 10:18:19;;;;;;;3.42;2.35;;;;;;;24.88;32.14;101369.91;4952817;28;20323;-77
2022/08/19 10:20:49;;;;;;;9.15;2.58;;;;;;;25.41;30.91;101380.06;4962344;28;20035;-77
2022/08/19 10:23:15;;;;;;;3.05;2.58;;;;;;;26.29;30.94;101376.94;4982819;28;20050;-77
2022/08/19 10:25:41;;;;;;;4.68;2.72;;;;;;;26.69;28.92;101387.19;4990739;28;20048;-77
2022/08/19 10:28:07;;;;;;;3.65;2.47;;;;;;;26.39;30.69;101382.19;4968728;28;20136;-78
2022/08/19 10:30:35;;;;;;;4.43;4.03;;;;;;;25.42;30.91;101384.44;4967684;28;20382;-77
2022/08/19 10:33:00;;;;;;;3.38;3.08;;;;;;;25.08;32.08;101383.25;4951668;28;20227;-77
2022/08/19 10:35:28;;;;;;;4.07;2.42;;;;;;;26.21;31.72;101379.53;4965306;28;20135;-77
2022/08/19 10:37:53;;;;;;;5.40;2.35;;;;;;;27.04;30.85;101380.03;4961121;28;20088;-76
2022/08/19 10:40:19;;;;;;;3.85;3.20;;;;;;;27.83;29.77;101372.75;4943747;28;20667;-77
2022/08/19 10:42:44;;;;;;;6.00;2.90;;;;;;;27.42;29.16;101369.88;4957023;28;20477;-79
2022/08/19 10:45:10;;;;;;;4.30;3.60;;;;;;;27.45;29.42;101355.28;4941401;28;20035;-76
2022/08/19 10:47:36;;;;;;;3.55;3.25;;;;;;;26.44;30.69;101361.97;4963365;28;20111;-77
2022/08/19 10:52:49;;;;;;;7.35;3.50;;;;;;;25.64;31.82;101369.84;4960665;28;20557;-76
2022/08/19 10:58:00;;;;;;;8.40;4.20;;;;;;;25.01;32.52;101367.78;4969542;28;20046;-75
2022/08/19 11:00:25;;;;;;;6.22;3.70;;;;;;;25.65;32.11;101368.00;4983897;28;20515;-77
2022/08/19 11:02:51;;;;;;;3.55;3.25;;;;;;;26.54;31.04;101366.41;4982192;28;20045;-78
2022/08/19 11:05:18;;;;;;;4.35;3.30;;;;;;;26.60;30.69;101361.31;4963954;28;20039;-75
2022/08/19 11:07:44;;;;;;;5.22;3.47;;;;;;;27.15;30.65;101352.13;4980344;28;20065;-77
2022/08/19 11:10:13;;;;;;;5.95;3.42;;;;;;;26.96;29.80;101350.50;4954444;28;20516;-75
2022/08/19 11:12:40;;;;;;;4.05;3.58;;;;;;;26.59;29.95;101354.25;4979812;28;20100;-76
2022/08/19 11:15:08;;;;;;;7.82;3.30;;;;;;;26.70;30.33;101345.94;4983378;28;20026;-76
2022/08/19 11:17:35;;;;;;;4.97;3.65;;;;;;;26.79;30.69;101338.81;4971292;28;20077;-77
2022/08/19 11:20:04;;;;;;;3.38;3.08;;;;;;;26.45;30.98;101341.38;4947924;28;20047;-78
2022/08/19 11:22:30;;;;;;;5.30;2.58;;;;;;;26.67;30.80;101345.41;4963890;28;20054;-79
2022/08/19 11:24:55;;;;;;;6.40;3.83;;;;;;;26.79;29.30;101348.69;4979226;28;20042;-78
2022/08/19 11:27:21;;;;;;;3.30;2.25;;;;;;;27.44;28.64;101349.06;4966998;28;20046;-76
2022/08/19 11:29:46;;;;;;;6.93;3.08;;;;;;;27.73;27.26;101343.31;4978136;28;20122;-77
2022/08/19 11:32:12;;;;;;;6.05;3.15;;;;;;;27.26;28.25;101340.28;4977946;28;20050;-77
2022/08/19 11:34:39;;;;;;;3.47;2.58;;;;;;;26.97;29.11;101340.59;4982635;28;20034;-75
2022/08/19 11:37:05;;;;;;;4.63;2.58;;;;;;;26.51;31.34;101346.09;4996443;28;20034;-78
2022/08/19 11:39:32;;;;;;;1.90;1.65;;;;;;;27.36;29.03;101342.81;4971798;28;20397;-76
2022/08/19 11:41:59;;;;;;;4.25;1.63;;;;;;;28.03;28.35;101341.06;4980367;28;20039;-76
2022/08/19 11:44:25;;;;;;;2.78;2.05;;;;;;;28.67;27.32;101341.25;4984002;28;20420;-76
2022/08/19 11:46:52;;;;;;;3.22;1.83;;;;;;;29.06;26.23;101332.44;4977779;28;20571;-76
2022/08/19 11:49:19;;;;;;;3.10;2.28;;;;;;;29.26;25.75;101340.97;4980993;28;20039;-76
2022/08/19 11:51:46;;;;;;;3.60;1.70;;;;;;;28.86;26.92;101339.19;4981836;28;20129;-76
2022/08/19 11:54:14;;;;;;;6.20;1.55;;;;;;;28.74;27.70;101342.25;4979961;28;20042;-77